Hlavní strana
METAR-TAF:

METAR-TAF

Letiště :

Estevan, Saskatchewan, Kanada

zeměpisná šířka: 49-13N, zeměpisná délka: 102-58W, výška: 572 m

Aktuální stav počasí

Zpráva byla vytvořena před 1 hodinou a 12 minutami, v 22:00 UTC
Východojihovýchodní vítr 11 kt s nárazy do 16 kt
Teplota 8°C
Vlhkost vzduchu 46%
Tlak 1019 hPa
Viditelnost: 14.5 km
Polojasno ve výšce 12000 ft
Oblačno až skoro zataženo ve výšce 16000 ft

METAR: CYEN 212200Z AUTO 12011G16KT 9SM SCT120 BKN160 08/M03 A3009 RMK SLP218

Čas: 17:12 (23:12 UTC)

Předpověď počasí

Zpráva byla vytvořena před 5 hodinami a 34 minutami, v 17:38 UTC
Předpověď platná od 21 v 18 UTC do 21 v 24 UTC
Jihovýchodní vítr 10 kt
Viditelnost: 10 km
Polojasno ve výšce 22000 ft
Změna
od 21 v 19 UTC do 21 v 21 UTC
Polojasno ve výšce 8000 ft
Oblačno až skoro zataženo ve výšce 22000 ft

TAF: CYEN 211738Z 2118/2124 13010KT P6SM SCT220 BECMG 2119/2121 SCT080 BKN220 RMK FCST BASED ON AUTO OBS. NXT FCST WILL BE ISSUED AT 221145Z

Stav a předpovědi počasí z více než 4 000 letišť (zprávy METAR a TAF).

Červené a žluté tečky na mapě představují dostupné meteorologické stanice.

Když kurzor umístíte na tečku, zobrazí se název stanice.

Pak kliknutím zobrazíte stav a předpověď počasí.

Chcete-li změnit mapu, kliknutím na zelené tlačítko se znaménkem +mapu přiblížíte, kliknutím na zelené tlačítko se znaménkem – mapu oddálíte a kliknutím na zelené šipky přejdete na sousední mapy.


METAR-TAF: